sensor_id;sensor_type;location;lat;lon;timestamp;pressure;altitude;pressure_sealevel;temperature;humidity
31225;BME280;17847;31.524;74.366;2023-04-29T00:01:05;98289.06;;;22.58;51.32
31225;BME280;17847;31.524;74.366;2023-04-29T00:03:35;98295.59;;;22.57;51.08
31225;BME280;17847;31.524;74.366;2023-04-29T00:06:04;98292.34;;;22.55;51.08
31225;BME280;17847;31.524;74.366;2023-04-29T00:08:34;98292.63;;;22.53;51.54
31225;BME280;17847;31.524;74.366;2023-04-29T00:11:04;98286.94;;;22.55;51.97
31225;BME280;17847;31.524;74.366;2023-04-29T00:13:33;98287.22;;;22.53;51.71
31225;BME280;17847;31.524;74.366;2023-04-29T00:16:03;98291.28;;;22.51;51.71
31225;BME280;17847;31.524;74.366;2023-04-29T00:18:33;98293.44;;;22.49;51.78
31225;BME280;17847;31.524;74.366;2023-04-29T00:21:02;98291.06;;;22.47;51.69
31225;BME280;17847;31.524;74.366;2023-04-29T00:23:35;98288.34;;;22.47;51.65
31225;BME280;17847;31.524;74.366;2023-04-29T00:26:04;98280.53;;;22.46;51.42
31225;BME280;17847;31.524;74.366;2023-04-29T00:28:33;98285.94;;;22.46;51.65
31225;BME280;17847;31.524;74.366;2023-04-29T00:31:02;98284.31;;;22.45;51.91
31225;BME280;17847;31.524;74.366;2023-04-29T00:33:32;98287.00;;;22.45;51.77
31225;BME280;17847;31.524;74.366;2023-04-29T00:36:01;98293.22;;;22.45;51.80
31225;BME280;17847;31.524;74.366;2023-04-29T00:38:31;98291.31;;;22.46;52.17
31225;BME280;17847;31.524;74.366;2023-04-29T00:41:00;98288.88;;;22.44;51.69
31225;BME280;17847;31.524;74.366;2023-04-29T00:43:30;98299.69;;;22.44;51.84
31225;BME280;17847;31.524;74.366;2023-04-29T00:46:00;98300.50;;;22.45;51.27
31225;BME280;17847;31.524;74.366;2023-04-29T00:48:29;98299.97;;;22.48;51.51
31225;BME280;17847;31.524;74.366;2023-04-29T00:50:59;98298.84;;;22.49;51.10
31225;BME280;17847;31.524;74.366;2023-04-29T00:53:29;98305.31;;;22.53;51.52
31225;BME280;17847;31.524;74.366;2023-04-29T00:56:01;98304.22;;;22.54;51.39
31225;BME280;17847;31.524;74.366;2023-04-29T00:58:30;98309.09;;;22.57;51.35
31225;BME280;17847;31.524;74.366;2023-04-29T01:01:03;98303.38;;;22.58;51.48
31225;BME280;17847;31.524;74.366;2023-04-29T01:03:33;98306.31;;;22.62;51.40
31225;BME280;17847;31.524;74.366;2023-04-29T01:09:16;98306.31;;;22.72;51.78
31225;BME280;17847;31.524;74.366;2023-04-29T01:17:59;98313.75;;;22.85;51.59
31225;BME280;17847;31.524;74.366;2023-04-29T01:20:33;98319.41;;;22.89;51.47
31225;BME280;17847;31.524;74.366;2023-04-29T01:23:03;98330.47;;;22.92;51.42
31225;BME280;17847;31.524;74.366;2023-04-29T01:25:33;98328.81;;;22.96;51.56
31225;BME280;17847;31.524;74.366;2023-04-29T01:31:06;98328.69;;;23.11;51.88
31225;BME280;17847;31.524;74.366;2023-04-29T01:33:55;98340.81;;;23.19;52.07
31225;BME280;17847;31.524;74.366;2023-04-29T01:37:21;98340.75;;;23.24;52.31
31225;BME280;17847;31.524;74.366;2023-04-29T01:39:36;98342.63;;;23.23;52.14
31225;BME280;17847;31.524;74.366;2023-04-29T01:45:20;98353.97;;;23.25;51.85
31225;BME280;17847;31.524;74.366;2023-04-29T01:47:52;98346.94;;;23.24;50.99
31225;BME280;17847;31.524;74.366;2023-04-29T01:50:25;98351.28;;;23.25;51.13
31225;BME280;17847;31.524;74.366;2023-04-29T01:53:00;98353.16;;;23.25;51.15
31225;BME280;17847;31.524;74.366;2023-04-29T01:55:30;98354.78;;;23.26;51.31
31225;BME280;17847;31.524;74.366;2023-04-29T01:58:20;98356.09;;;23.28;51.33
31225;BME280;17847;31.524;74.366;2023-04-29T02:00:55;98361.22;;;23.30;51.49
31225;BME280;17847;31.524;74.366;2023-04-29T02:03:26;98366.34;;;23.37;51.88
31225;BME280;17847;31.524;74.366;2023-04-29T02:05:56;98362.75;;;23.46;53.19
31225;BME280;17847;31.524;74.366;2023-04-29T02:08:27;98363.47;;;23.57;56.16
31225;BME280;17847;31.524;74.366;2023-04-29T02:10:58;98368.25;;;23.65;56.97
31225;BME280;17847;31.524;74.366;2023-04-29T02:13:34;98370.63;;;23.71;55.67
31225;BME280;17847;31.524;74.366;2023-04-29T02:16:08;98365.91;;;23.82;56.15
31225;BME280;17847;31.524;74.366;2023-04-29T02:18:42;98367.44;;;23.93;56.30
31225;BME280;17847;31.524;74.366;2023-04-29T02:21:12;98372.09;;;24.11;56.09
31225;BME280;17847;31.524;74.366;2023-04-29T02:23:41;98375.81;;;24.21;54.70
31225;BME280;17847;31.524;74.366;2023-04-29T02:26:10;98380.28;;;24.30;53.91
31225;BME280;17847;31.524;74.366;2023-04-29T02:28:41;98383.31;;;24.47;54.47
31225;BME280;17847;31.524;74.366;2023-04-29T02:31:11;98382.69;;;24.74;53.74
31225;BME280;17847;31.524;74.366;2023-04-29T02:33:44;98388.88;;;24.98;53.64
31225;BME280;17847;31.524;74.366;2023-04-29T02:36:13;98380.34;;;25.24;53.42
31225;BME280;17847;31.524;74.366;2023-04-29T02:38:43;98380.97;;;25.53;51.16
31225;BME280;17847;31.524;74.366;2023-04-29T02:41:18;98380.94;;;25.85;48.26
31225;BME280;17847;31.524;74.366;2023-04-29T02:43:47;98384.56;;;25.94;46.65
31225;BME280;17847;31.524;74.366;2023-04-29T02:46:17;98386.91;;;26.15;48.00
31225;BME280;17847;31.524;74.366;2023-04-29T02:48:46;98385.63;;;26.26;47.98
31225;BME280;17847;31.524;74.366;2023-04-29T02:51:16;98392.78;;;26.22;46.99
31225;BME280;17847;31.524;74.366;2023-04-29T02:53:45;98390.34;;;26.20;46.37
31225;BME280;17847;31.524;74.366;2023-04-29T02:56:15;98387.72;;;26.15;46.11
31225;BME280;17847;31.524;74.366;2023-04-29T02:58:44;98390.91;;;26.04;46.53
31225;BME280;17847;31.524;74.366;2023-04-29T03:01:13;98391.53;;;26.01;46.87
31225;BME280;17847;31.524;74.366;2023-04-29T03:03:43;98385.88;;;25.83;48.32
31225;BME280;17847;31.524;74.366;2023-04-29T03:06:13;98384.66;;;25.89;47.49
31225;BME280;17847;31.524;74.366;2023-04-29T03:08:43;98395.94;;;25.97;47.88
31225;BME280;17847;31.524;74.366;2023-04-29T03:11:12;98397.53;;;25.84;48.10
31225;BME280;17847;31.524;74.366;2023-04-29T03:13:42;98395.28;;;25.72;46.54
31225;BME280;17847;31.524;74.366;2023-04-29T03:16:11;98404.53;;;25.58;46.47
31225;BME280;17847;31.524;74.366;2023-04-29T03:18:45;98400.03;;;25.48;45.76
31225;BME280;17847;31.524;74.366;2023-04-29T03:21:14;98400.47;;;25.55;46.57
31225;BME280;17847;31.524;74.366;2023-04-29T03:23:44;98406.75;;;25.50;46.93
31225;BME280;17847;31.524;74.366;2023-04-29T03:26:19;98406.03;;;25.64;48.78
31225;BME280;17847;31.524;74.366;2023-04-29T03:28:50;98399.63;;;25.73;49.50
31225;BME280;17847;31.524;74.366;2023-04-29T03:31:19;98404.03;;;25.69;48.54
31225;BME280;17847;31.524;74.366;2023-04-29T03:33:51;98406.16;;;25.72;48.17
31225;BME280;17847;31.524;74.366;2023-04-29T03:36:22;98404.94;;;25.65;48.08
31225;BME280;17847;31.524;74.366;2023-04-29T03:39:05;98402.09;;;25.56;47.07
31225;BME280;17847;31.524;74.366;2023-04-29T03:41:35;98411.28;;;25.74;46.56
31225;BME280;17847;31.524;74.366;2023-04-29T03:44:04;98411.59;;;25.86;45.98
31225;BME280;17847;31.524;74.366;2023-04-29T03:46:34;98413.03;;;25.97;46.43
31225;BME280;17847;31.524;74.366;2023-04-29T03:49:03;98423.47;;;25.90;47.85
31225;BME280;17847;31.524;74.366;2023-04-29T03:51:33;98426.41;;;26.07;48.79
31225;BME280;17847;31.524;74.366;2023-04-29T03:54:10;98425.22;;;26.13;48.83
31225;BME280;17847;31.524;74.366;2023-04-29T03:56:41;98433.13;;;26.28;47.70
31225;BME280;17847;31.524;74.366;2023-04-29T03:59:12;98434.81;;;26.38;45.51
31225;BME280;17847;31.524;74.366;2023-04-29T04:01:42;98425.38;;;26.49;45.28
31225;BME280;17847;31.524;74.366;2023-04-29T04:04:11;98438.56;;;26.42;46.97
31225;BME280;17847;31.524;74.366;2023-04-29T04:06:44;98430.19;;;26.38;47.12
31225;BME280;17847;31.524;74.366;2023-04-29T04:09:21;98428.47;;;26.43;46.51
31225;BME280;17847;31.524;74.366;2023-04-29T04:11:51;98432.81;;;26.57;45.21
31225;BME280;17847;31.524;74.366;2023-04-29T04:14:21;98430.34;;;26.83;45.68
31225;BME280;17847;31.524;74.366;2023-04-29T04:16:50;98428.94;;;26.99;47.44
31225;BME280;17847;31.524;74.366;2023-04-29T04:19:19;98428.41;;;27.11;46.94
31225;BME280;17847;31.524;74.366;2023-04-29T04:21:49;98441.94;;;26.89;47.35
31225;BME280;17847;31.524;74.366;2023-04-29T04:24:18;98429.34;;;26.93;46.44
31225;BME280;17847;31.524;74.366;2023-04-29T04:26:48;98435.66;;;27.15;46.75
31225;BME280;17847;31.524;74.366;2023-04-29T04:29:22;98441.78;;;27.21;46.72
31225;BME280;17847;31.524;74.366;2023-04-29T04:31:58;98439.00;;;27.48;46.15
31225;BME280;17847;31.524;74.366;2023-04-29T04:34:29;98432.84;;;27.43;46.00
31225;BME280;17847;31.524;74.366;2023-04-29T04:37:01;98430.31;;;27.68;45.40
31225;BME280;17847;31.524;74.366;2023-04-29T04:39:31;98434.63;;;27.92;44.99
31225;BME280;17847;31.524;74.366;2023-04-29T04:42:01;98437.56;;;28.04;44.65
31225;BME280;17847;31.524;74.366;2023-04-29T04:44:32;98436.69;;;28.17;44.21
31225;BME280;17847;31.524;74.366;2023-04-29T04:47:07;98434.72;;;28.09;45.34
31225;BME280;17847;31.524;74.366;2023-04-29T04:49:54;98435.50;;;28.32;44.11
31225;BME280;17847;31.524;74.366;2023-04-29T04:52:23;98431.53;;;28.55;43.77
31225;BME280;17847;31.524;74.366;2023-04-29T04:55:02;98435.47;;;28.71;44.38
31225;BME280;17847;31.524;74.366;2023-04-29T04:57:34;98432.41;;;28.73;42.61
31225;BME280;17847;31.524;74.366;2023-04-29T05:00:06;98434.03;;;28.82;43.65
31225;BME280;17847;31.524;74.366;2023-04-29T05:02:35;98428.19;;;28.58;43.42
31225;BME280;17847;31.524;74.366;2023-04-29T05:05:05;98429.97;;;28.63;43.45
31225;BME280;17847;31.524;74.366;2023-04-29T05:07:36;98424.75;;;28.75;44.12
31225;BME280;17847;31.524;74.366;2023-04-29T05:10:06;98435.66;;;28.92;43.26
31225;BME280;17847;31.524;74.366;2023-04-29T05:12:44;98423.94;;;28.74;45.88
31225;BME280;17847;31.524;74.366;2023-04-29T05:15:14;98426.34;;;28.76;42.39
31225;BME280;17847;31.524;74.366;2023-04-29T05:17:46;98424.75;;;28.92;40.80
31225;BME280;17847;31.524;74.366;2023-04-29T05:20:16;98418.81;;;28.81;41.88
31225;BME280;17847;31.524;74.366;2023-04-29T05:22:45;98416.00;;;28.55;40.48
31225;BME280;17847;31.524;74.366;2023-04-29T05:25:15;98424.16;;;28.47;40.70
31225;BME280;17847;31.524;74.366;2023-04-29T05:27:45;98425.25;;;28.46;42.15
31225;BME280;17847;31.524;74.366;2023-04-29T05:30:17;98429.84;;;28.68;42.33
31225;BME280;17847;31.524;74.366;2023-04-29T05:32:48;98428.22;;;28.67;42.97
31225;BME280;17847;31.524;74.366;2023-04-29T05:35:20;98414.00;;;28.87;42.36
31225;BME280;17847;31.524;74.366;2023-04-29T05:37:50;98418.66;;;29.12;41.05
31225;BME280;17847;31.524;74.366;2023-04-29T05:40:32;98421.75;;;29.19;42.29
31225;BME280;17847;31.524;74.366;2023-04-29T05:43:28;98414.22;;;29.33;42.41
31225;BME280;17847;31.524;74.366;2023-04-29T05:45:57;98419.19;;;29.31;43.72
31225;BME280;17847;31.524;74.366;2023-04-29T05:48:27;98414.84;;;29.30;42.69
31225;BME280;17847;31.524;74.366;2023-04-29T05:50:58;98414.81;;;28.96;42.35
31225;BME280;17847;31.524;74.366;2023-04-29T05:53:27;98411.47;;;29.25;41.85
31225;BME280;17847;31.524;74.366;2023-04-29T05:55:57;98404.25;;;29.03;42.65
31225;BME280;17847;31.524;74.366;2023-04-29T05:58:26;98402.94;;;29.26;41.56
31225;BME280;17847;31.524;74.366;2023-04-29T06:00:56;98401.38;;;29.25;39.28
31225;BME280;17847;31.524;74.366;2023-04-29T06:03:27;98394.47;;;29.11;40.77
31225;BME280;17847;31.524;74.366;2023-04-29T06:06:17;98391.25;;;29.17;41.33
31225;BME280;17847;31.524;74.366;2023-04-29T06:09:01;98390.47;;;29.42;40.55
31225;BME280;17847;31.524;74.366;2023-04-29T06:11:40;98388.91;;;29.97;38.55
31225;BME280;17847;31.524;74.366;2023-04-29T06:14:10;98381.41;;;30.82;35.56
31225;BME280;17847;31.524;74.366;2023-04-29T06:16:40;98389.59;;;30.61;38.02
31225;BME280;17847;31.524;74.366;2023-04-29T06:19:09;98388.19;;;30.55;37.22
31225;BME280;17847;31.524;74.366;2023-04-29T06:21:41;98390.97;;;30.38;37.44
31225;BME280;17847;31.524;74.366;2023-04-29T06:24:11;98387.16;;;30.30;36.46
31225;BME280;17847;31.524;74.366;2023-04-29T06:26:40;98386.94;;;30.06;36.66
31225;BME280;17847;31.524;74.366;2023-04-29T06:29:10;98386.75;;;30.11;37.05
31225;BME280;17847;31.524;74.366;2023-04-29T06:31:40;98380.75;;;30.26;36.91
31225;BME280;17847;31.524;74.366;2023-04-29T06:34:12;98375.53;;;30.42;37.37
31225;BME280;17847;31.524;74.366;2023-04-29T06:37:02;98383.00;;;30.62;37.67
31225;BME280;17847;31.524;74.366;2023-04-29T06:39:53;98368.47;;;30.70;38.94
31225;BME280;17847;31.524;74.366;2023-04-29T06:42:40;98373.69;;;30.84;36.82
31225;BME280;17847;31.524;74.366;2023-04-29T06:45:49;98370.88;;;31.34;33.69
31225;BME280;17847;31.524;74.366;2023-04-29T06:48:28;98369.00;;;31.46;32.16
31225;BME280;17847;31.524;74.366;2023-04-29T06:50:58;98359.72;;;31.72;30.69
31225;BME280;17847;31.524;74.366;2023-04-29T06:54:25;98361.66;;;31.71;30.71
31225;BME280;17847;31.524;74.366;2023-04-29T06:57:54;98365.50;;;32.51;28.31
31225;BME280;17847;31.524;74.366;2023-04-29T07:01:22;98367.69;;;32.46;33.73
31225;BME280;17847;31.524;74.366;2023-04-29T07:04:49;98365.16;;;32.41;33.00
31225;BME280;17847;31.524;74.366;2023-04-29T07:08:18;98362.88;;;32.67;30.13
31225;BME280;17847;31.524;74.366;2023-04-29T07:11:46;98356.22;;;32.92;28.00
31225;BME280;17847;31.524;74.366;2023-04-29T07:15:13;98350.84;;;33.24;30.09
31225;BME280;17847;31.524;74.366;2023-04-29T07:18:41;98343.53;;;33.28;30.17
31225;BME280;17847;31.524;74.366;2023-04-29T07:22:08;98341.72;;;33.08;25.91
31225;BME280;17847;31.524;74.366;2023-04-29T07:25:35;98350.03;;;33.51;26.07
31225;BME280;17847;31.524;74.366;2023-04-29T07:29:03;98341.28;;;33.61;25.15
31225;BME280;17847;31.524;74.366;2023-04-29T07:32:30;98347.81;;;33.84;27.17
31225;BME280;17847;31.524;74.366;2023-04-29T07:35:58;98336.34;;;33.82;28.72
31225;BME280;17847;31.524;74.366;2023-04-29T07:39:26;98332.81;;;33.66;25.25
31225;BME280;17847;31.524;74.366;2023-04-29T07:42:55;98333.22;;;33.68;25.57
31225;BME280;17847;31.524;74.366;2023-04-29T08:05:42;98300.97;;;33.50;25.69
31225;BME280;17847;31.524;74.366;2023-04-29T08:08:16;98303.53;;;33.58;24.73
31225;BME280;17847;31.524;74.366;2023-04-29T08:10:45;98297.75;;;33.48;24.53
31225;BME280;17847;31.524;74.366;2023-04-29T08:13:15;98299.09;;;33.54;25.61
31225;BME280;17847;31.524;74.366;2023-04-29T08:15:45;98285.06;;;33.43;30.56
31225;BME280;17847;31.524;74.366;2023-04-29T08:18:14;98281.69;;;33.34;29.30
31225;BME280;17847;31.524;74.366;2023-04-29T08:20:44;98282.75;;;33.29;26.35
31225;BME280;17847;31.524;74.366;2023-04-29T08:23:15;98273.53;;;33.22;30.00
31225;BME280;17847;31.524;74.366;2023-04-29T08:25:44;98272.56;;;33.02;28.29
31225;BME280;17847;31.524;74.366;2023-04-29T08:28:14;98267.44;;;33.01;31.92
31225;BME280;17847;31.524;74.366;2023-04-29T08:30:43;98265.38;;;32.97;28.94
31225;BME280;17847;31.524;74.366;2023-04-29T08:33:12;98255.41;;;33.05;28.83
31225;BME280;17847;31.524;74.366;2023-04-29T08:35:42;98259.47;;;33.11;27.96
31225;BME280;17847;31.524;74.366;2023-04-29T08:38:11;98255.03;;;32.91;29.83
31225;BME280;17847;31.524;74.366;2023-04-29T08:40:44;98248.47;;;32.68;28.11
31225;BME280;17847;31.524;74.366;2023-04-29T08:43:15;98252.03;;;32.56;30.01
31225;BME280;17847;31.524;74.366;2023-04-29T08:45:47;98239.81;;;32.53;29.27
31225;BME280;17847;31.524;74.366;2023-04-29T08:48:17;98234.59;;;32.36;29.06
31225;BME280;17847;31.524;74.366;2023-04-29T08:56:54;98217.13;;;32.41;26.98
31225;BME280;17847;31.524;74.366;2023-04-29T08:59:27;98220.91;;;32.76;27.03
31225;BME280;17847;31.524;74.366;2023-04-29T09:01:58;98217.50;;;32.67;27.78
31225;BME280;17847;31.524;74.366;2023-04-29T09:07:40;98208.88;;;32.81;28.66
31225;BME280;17847;31.524;74.366;2023-04-29T09:10:11;98204.53;;;32.80;30.01
31225;BME280;17847;31.524;74.366;2023-04-29T09:12:46;98195.97;;;32.81;27.84
31225;BME280;17847;31.524;74.366;2023-04-29T09:15:16;98190.72;;;32.76;30.85
31225;BME280;17847;31.524;74.366;2023-04-29T09:17:47;98188.63;;;32.05;32.45
31225;BME280;17847;31.524;74.366;2023-04-29T09:25:21;98179.63;;;31.44;34.96
31225;BME280;17847;31.524;74.366;2023-04-29T09:27:51;98176.53;;;31.21;35.74
31225;BME280;17847;31.524;74.366;2023-04-29T09:30:21;98171.72;;;31.06;36.14
31225;BME280;17847;31.524;74.366;2023-04-29T09:33:05;98172.34;;;30.91;37.02
31225;BME280;17847;31.524;74.366;2023-04-29T09:35:35;98167.09;;;30.86;34.21
31225;BME280;17847;31.524;74.366;2023-04-29T09:38:14;98164.94;;;30.92;32.25
31225;BME280;17847;31.524;74.366;2023-04-29T09:40:45;98157.94;;;31.15;31.90
31225;BME280;17847;31.524;74.366;2023-04-29T09:43:26;98156.22;;;31.47;29.44
31225;BME280;17847;31.524;74.366;2023-04-29T09:45:57;98166.88;;;31.60;33.06
31225;BME280;17847;31.524;74.366;2023-04-29T09:48:32;98193.13;;;31.61;35.58
31225;BME280;17847;31.524;74.366;2023-04-29T09:51:03;98179.72;;;31.24;39.59
31225;BME280;17847;31.524;74.366;2023-04-29T09:53:35;98190.75;;;31.03;39.43
31225;BME280;17847;31.524;74.366;2023-04-29T09:56:08;98178.63;;;30.92;40.60
31225;BME280;17847;31.524;74.366;2023-04-29T09:58:39;98174.78;;;30.72;41.88
31225;BME280;17847;31.524;74.366;2023-04-29T10:01:40;98178.03;;;30.53;40.06
31225;BME280;17847;31.524;74.366;2023-04-29T10:05:09;98167.34;;;30.40;40.31
31225;BME280;17847;31.524;74.366;2023-04-29T10:08:37;98172.97;;;30.22;40.66
31225;BME280;17847;31.524;74.366;2023-04-29T10:12:07;98161.38;;;30.05;38.44
31225;BME280;17847;31.524;74.366;2023-04-29T10:15:46;98174.00;;;29.88;36.98
31225;BME280;17847;31.524;74.366;2023-04-29T10:19:52;98167.44;;;29.81;36.66
31225;BME280;17847;31.524;74.366;2023-04-29T10:23:24;98178.09;;;29.74;38.11
31225;BME280;17847;31.524;74.366;2023-04-29T10:25:56;98175.03;;;29.75;38.02
31225;BME280;17847;31.524;74.366;2023-04-29T10:28:31;98174.50;;;29.82;38.41
31225;BME280;17847;31.524;74.366;2023-04-29T10:31:03;98183.56;;;29.74;39.81
31225;BME280;17847;31.524;74.366;2023-04-29T10:33:34;98187.91;;;29.66;38.67
31225;BME280;17847;31.524;74.366;2023-04-29T10:36:05;98182.28;;;29.71;38.88
31225;BME280;17847;31.524;74.366;2023-04-29T10:38:46;98178.94;;;29.66;38.12
31225;BME280;17847;31.524;74.366;2023-04-29T10:41:26;98181.88;;;29.61;39.28
31225;BME280;17847;31.524;74.366;2023-04-29T10:43:58;98175.16;;;29.50;42.51
31225;BME280;17847;31.524;74.366;2023-04-29T10:46:31;98180.94;;;29.48;40.71
31225;BME280;17847;31.524;74.366;2023-04-29T10:49:02;98185.94;;;29.46;38.46
31225;BME280;17847;31.524;74.366;2023-04-29T10:51:39;98195.28;;;29.36;40.78
31225;BME280;17847;31.524;74.366;2023-04-29T10:54:16;98195.00;;;29.12;39.51
31225;BME280;17847;31.524;74.366;2023-04-29T10:56:48;98197.13;;;29.07;41.66
31225;BME280;17847;31.524;74.366;2023-04-29T11:01:58;98196.50;;;29.01;40.49
31225;BME280;17847;31.524;74.366;2023-04-29T11:04:30;98181.25;;;29.00;39.18
31225;BME280;17847;31.524;74.366;2023-04-29T11:07:00;98183.03;;;28.96;41.48
31225;BME280;17847;31.524;74.366;2023-04-29T11:09:34;98178.25;;;28.93;39.18
31225;BME280;17847;31.524;74.366;2023-04-29T11:12:09;98177.41;;;29.01;39.33
31225;BME280;17847;31.524;74.366;2023-04-29T11:14:49;98167.78;;;29.03;39.57
31225;BME280;17847;31.524;74.366;2023-04-29T11:17:19;98166.03;;;29.08;39.21
31225;BME280;17847;31.524;74.366;2023-04-29T11:19:54;98171.63;;;29.11;41.75
31225;BME280;17847;31.524;74.366;2023-04-29T11:22:26;98166.16;;;29.11;42.04
31225;BME280;17847;31.524;74.366;2023-04-29T11:27:39;98159.47;;;28.91;40.71
31225;BME280;17847;31.524;74.366;2023-04-29T11:30:19;98156.25;;;28.98;40.11
31225;BME280;17847;31.524;74.366;2023-04-29T11:32:49;98161.72;;;28.98;40.70
31225;BME280;17847;31.524;74.366;2023-04-29T11:35:19;98165.25;;;28.98;40.44
31225;BME280;17847;31.524;74.366;2023-04-29T11:37:49;98169.91;;;28.98;41.91
31225;BME280;17847;31.524;74.366;2023-04-29T11:40:19;98166.69;;;28.96;41.21
31225;BME280;17847;31.524;74.366;2023-04-29T11:42:49;98171.19;;;28.92;41.17
31225;BME280;17847;31.524;74.366;2023-04-29T11:45:19;98160.78;;;28.85;41.37
31225;BME280;17847;31.524;74.366;2023-04-29T11:47:49;98151.31;;;28.83;42.34
31225;BME280;17847;31.524;74.366;2023-04-29T11:50:22;98152.94;;;28.75;41.29
31225;BME280;17847;31.524;74.366;2023-04-29T11:52:51;98147.66;;;28.79;42.36
31225;BME280;17847;31.524;74.366;2023-04-29T11:55:21;98146.84;;;28.78;42.51
31225;BME280;17847;31.524;74.366;2023-04-29T11:57:51;98139.63;;;28.74;42.51
31225;BME280;17847;31.524;74.366;2023-04-29T12:00:20;98137.06;;;28.69;42.41
31225;BME280;17847;31.524;74.366;2023-04-29T12:02:50;98136.44;;;28.72;42.58
31225;BME280;17847;31.524;74.366;2023-04-29T12:05:20;98130.19;;;28.71;41.96
31225;BME280;17847;31.524;74.366;2023-04-29T12:07:50;98131.00;;;28.72;41.54
31225;BME280;17847;31.524;74.366;2023-04-29T12:10:20;98126.34;;;28.72;40.97
31225;BME280;17847;31.524;74.366;2023-04-29T12:12:49;98120.69;;;28.69;40.20
31225;BME280;17847;31.524;74.366;2023-04-29T12:15:19;98124.56;;;28.68;40.74
31225;BME280;17847;31.524;74.366;2023-04-29T12:17:49;98116.72;;;28.66;41.48
31225;BME280;17847;31.524;74.366;2023-04-29T12:20:19;98107.09;;;28.60;44.77
31225;BME280;17847;31.524;74.366;2023-04-29T12:22:50;98101.81;;;28.46;43.37
31225;BME280;17847;31.524;74.366;2023-04-29T12:25:25;98094.47;;;28.38;45.33
31225;BME280;17847;31.524;74.366;2023-04-29T12:27:59;98096.56;;;28.33;47.38
31225;BME280;17847;31.524;74.366;2023-04-29T12:30:29;98094.34;;;28.26;47.67
31225;BME280;17847;31.524;74.366;2023-04-29T12:32:59;98089.69;;;28.09;45.37
31225;BME280;17847;31.524;74.366;2023-04-29T12:35:28;98085.66;;;28.07;46.65
31225;BME280;17847;31.524;74.366;2023-04-29T12:37:58;98082.50;;;27.96;45.94
31225;BME280;17847;31.524;74.366;2023-04-29T12:40:28;98089.34;;;27.94;48.44
31225;BME280;17847;31.524;74.366;2023-04-29T12:42:57;98082.31;;;27.84;45.04
31225;BME280;17847;31.524;74.366;2023-04-29T12:45:31;98086.97;;;27.84;46.51
31225;BME280;17847;31.524;74.366;2023-04-29T12:48:02;98091.44;;;27.80;44.09
31225;BME280;17847;31.524;74.366;2023-04-29T12:50:41;98086.78;;;27.72;47.76
31225;BME280;17847;31.524;74.366;2023-04-29T12:53:10;98083.91;;;27.68;48.45
31225;BME280;17847;31.524;74.366;2023-04-29T12:55:41;98085.50;;;27.69;45.96
31225;BME280;17847;31.524;74.366;2023-04-29T13:01:00;98087.72;;;27.58;47.46
31225;BME280;17847;31.524;74.366;2023-04-29T13:03:29;98092.84;;;27.51;45.52
31225;BME280;17847;31.524;74.366;2023-04-29T13:05:58;98098.09;;;27.39;47.82
31225;BME280;17847;31.524;74.366;2023-04-29T13:08:29;98101.25;;;27.33;45.47
31225;BME280;17847;31.524;74.366;2023-04-29T13:10:58;98107.81;;;27.32;47.73
31225;BME280;17847;31.524;74.366;2023-04-29T13:13:28;98108.41;;;27.20;46.22
31225;BME280;17847;31.524;74.366;2023-04-29T13:15:58;98103.75;;;27.12;47.54
31225;BME280;17847;31.524;74.366;2023-04-29T13:18:34;98107.06;;;27.00;47.37
31225;BME280;17847;31.524;74.366;2023-04-29T13:21:05;98109.47;;;27.02;46.33
31225;BME280;17847;31.524;74.366;2023-04-29T13:23:36;98114.38;;;26.91;47.17
31225;BME280;17847;31.524;74.366;2023-04-29T13:26:05;98116.72;;;26.84;47.03
31225;BME280;17847;31.524;74.366;2023-04-29T13:28:37;98124.59;;;26.86;47.92
31225;BME280;17847;31.524;74.366;2023-04-29T13:31:06;98131.41;;;26.83;46.37
31225;BME280;17847;31.524;74.366;2023-04-29T13:33:36;98132.66;;;26.77;49.43
31225;BME280;17847;31.524;74.366;2023-04-29T13:36:07;98139.34;;;26.71;47.17
31225;BME280;17847;31.524;74.366;2023-04-29T13:38:37;98148.00;;;26.73;45.86
31225;BME280;17847;31.524;74.366;2023-04-29T13:41:06;98144.47;;;26.72;46.22
31225;BME280;17847;31.524;74.366;2023-04-29T13:43:43;98144.66;;;26.76;45.12
31225;BME280;17847;31.524;74.366;2023-04-29T13:46:17;98135.06;;;26.78;44.19
31225;BME280;17847;31.524;74.366;2023-04-29T13:48:48;98135.56;;;26.80;44.06
31225;BME280;17847;31.524;74.366;2023-04-29T13:51:20;98140.50;;;26.78;44.71
31225;BME280;17847;31.524;74.366;2023-04-29T13:54:10;98134.59;;;26.76;44.82
31225;BME280;17847;31.524;74.366;2023-04-29T13:57:00;98142.56;;;26.73;44.88
31225;BME280;17847;31.524;74.366;2023-04-29T13:59:52;98153.91;;;26.75;45.28
31225;BME280;17847;31.524;74.366;2023-04-29T14:02:24;98166.69;;;26.74;45.12
31225;BME280;17847;31.524;74.366;2023-04-29T14:04:55;98168.94;;;26.72;45.20
31225;BME280;17847;31.524;74.366;2023-04-29T14:07:25;98175.28;;;26.68;45.75
31225;BME280;17847;31.524;74.366;2023-04-29T14:10:03;98179.75;;;26.64;46.00
31225;BME280;17847;31.524;74.366;2023-04-29T14:12:32;98185.47;;;26.62;45.95
31225;BME280;17847;31.524;74.366;2023-04-29T14:15:02;98189.63;;;26.60;46.82
31225;BME280;17847;31.524;74.366;2023-04-29T14:17:31;98190.22;;;26.57;46.42
31225;BME280;17847;31.524;74.366;2023-04-29T14:20:01;98186.22;;;26.54;46.08
31225;BME280;17847;31.524;74.366;2023-04-29T14:22:31;98183.97;;;26.56;46.84
31225;BME280;17847;31.524;74.366;2023-04-29T14:25:01;98182.69;;;26.54;47.11
31225;BME280;17847;31.524;74.366;2023-04-29T14:27:37;98188.25;;;26.49;46.78
31225;BME280;17847;31.524;74.366;2023-04-29T14:30:07;98183.63;;;26.49;46.67
31225;BME280;17847;31.524;74.366;2023-04-29T14:32:37;98183.91;;;26.48;46.66
31225;BME280;17847;31.524;74.366;2023-04-29T14:35:07;98191.59;;;26.46;46.85